sensor_id;sensor_type;location;lat;lon;timestamp;P1;durP1;ratioP1;P2;durP2;ratioP2
62110;SDS011;48102;47.526;19.072;2023-01-26T04:43:52;2.83;;;2.62;;
62110;SDS011;48102;47.526;19.072;2023-01-26T04:46:55;4.57;;;4.05;;
62110;SDS011;48102;47.526;19.072;2023-01-26T04:49:58;5.60;;;3.60;;
62110;SDS011;48102;47.526;19.072;2023-01-26T04:53:01;4.28;;;3.53;;
62110;SDS011;48102;47.526;19.072;2023-01-26T04:56:06;4.10;;;3.67;;
62110;SDS011;48102;47.526;19.072;2023-01-26T04:59:16;3.67;;;3.37;;
62110;SDS011;48102;47.526;19.072;2023-01-26T05:05:22;6.65;;;5.03;;
62110;SDS011;48102;47.526;19.072;2023-01-26T05:08:25;6.37;;;4.55;;
62110;SDS011;48102;47.526;19.072;2023-01-26T05:11:29;5.72;;;4.57;;
62110;SDS011;48102;47.526;19.072;2023-01-26T05:14:31;9.38;;;3.90;;
62110;SDS011;48102;47.526;19.072;2023-01-26T05:17:35;8.05;;;4.75;;
62110;SDS011;48102;47.526;19.072;2023-01-26T05:20:40;9.88;;;5.60;;
62110;SDS011;48102;47.526;19.072;2023-01-26T05:23:43;7.47;;;5.20;;
62110;SDS011;48102;47.526;19.072;2023-01-26T05:26:46;5.62;;;4.62;;
62110;SDS011;48102;47.526;19.072;2023-01-26T05:29:51;8.18;;;4.93;;
62110;SDS011;48102;47.526;19.072;2023-01-26T05:32:59;7.22;;;4.32;;
62110;SDS011;48102;47.526;19.072;2023-01-26T05:36:04;7.95;;;4.95;;
62110;SDS011;48102;47.526;19.072;2023-01-26T05:39:09;5.57;;;4.85;;
62110;SDS011;48102;47.526;19.072;2023-01-26T05:42:12;3.92;;;3.22;;
62110;SDS011;48102;47.526;19.072;2023-01-26T05:45:16;7.25;;;3.90;;
62110;SDS011;48102;47.526;19.072;2023-01-26T05:48:20;4.95;;;3.60;;
62110;SDS011;48102;47.526;19.072;2023-01-26T05:51:24;6.57;;;4.12;;
62110;SDS011;48102;47.526;19.072;2023-01-26T05:54:27;6.75;;;4.85;;
62110;SDS011;48102;47.526;19.072;2023-01-26T05:57:30;5.37;;;4.60;;
62110;SDS011;48102;47.526;19.072;2023-01-26T06:00:34;5.45;;;4.10;;
62110;SDS011;48102;47.526;19.072;2023-01-26T06:03:40;6.40;;;3.70;;
62110;SDS011;48102;47.526;19.072;2023-01-26T06:06:43;5.90;;;3.67;;
62110;SDS011;48102;47.526;19.072;2023-01-26T06:09:46;5.40;;;4.47;;
62110;SDS011;48102;47.526;19.072;2023-01-26T06:12:50;4.32;;;3.35;;
62110;SDS011;48102;47.526;19.072;2023-01-26T06:15:53;7.97;;;4.53;;
62110;SDS011;48102;47.526;19.072;2023-01-26T06:18:56;5.22;;;3.55;;
62110;SDS011;48102;47.526;19.072;2023-01-26T06:22:00;8.23;;;4.12;;
62110;SDS011;48102;47.526;19.072;2023-01-26T06:25:04;6.57;;;4.22;;
62110;SDS011;48102;47.526;19.072;2023-01-26T06:28:07;4.78;;;3.60;;
62110;SDS011;48102;47.526;19.072;2023-01-26T06:31:12;5.20;;;3.65;;
62110;SDS011;48102;47.526;19.072;2023-01-26T06:34:16;4.55;;;3.50;;
62110;SDS011;48102;47.526;19.072;2023-01-26T06:37:19;6.95;;;4.28;;
62110;SDS011;48102;47.526;19.072;2023-01-26T06:40:23;7.05;;;5.00;;
62110;SDS011;48102;47.526;19.072;2023-01-26T06:43:26;5.35;;;3.78;;
62110;SDS011;48102;47.526;19.072;2023-01-26T06:46:31;5.50;;;4.45;;
62110;SDS011;48102;47.526;19.072;2023-01-26T06:52:38;4.62;;;3.45;;
62110;SDS011;48102;47.526;19.072;2023-01-26T06:55:44;6.65;;;4.43;;
62110;SDS011;48102;47.526;19.072;2023-01-26T06:58:51;5.35;;;3.78;;
62110;SDS011;48102;47.526;19.072;2023-01-26T07:01:54;5.53;;;4.10;;
62110;SDS011;48102;47.526;19.072;2023-01-26T07:04:57;5.72;;;4.20;;
62110;SDS011;48102;47.526;19.072;2023-01-26T07:08:00;5.07;;;3.70;;
62110;SDS011;48102;47.526;19.072;2023-01-26T07:11:09;4.60;;;3.25;;
62110;SDS011;48102;47.526;19.072;2023-01-26T07:14:13;4.53;;;3.50;;
62110;SDS011;48102;47.526;19.072;2023-01-26T07:17:16;3.87;;;2.95;;
62110;SDS011;48102;47.526;19.072;2023-01-26T07:20:19;6.22;;;5.28;;
62110;SDS011;48102;47.526;19.072;2023-01-26T07:23:22;6.35;;;4.53;;
62110;SDS011;48102;47.526;19.072;2023-01-26T07:26:25;9.43;;;4.80;;
62110;SDS011;48102;47.526;19.072;2023-01-26T07:29:28;9.15;;;4.93;;
62110;SDS011;48102;47.526;19.072;2023-01-26T07:32:31;5.35;;;3.85;;
62110;SDS011;48102;47.526;19.072;2023-01-26T07:35:34;4.62;;;3.37;;
62110;SDS011;48102;47.526;19.072;2023-01-26T07:38:37;6.25;;;3.20;;
62110;SDS011;48102;47.526;19.072;2023-01-26T07:41:40;4.35;;;3.53;;
62110;SDS011;48102;47.526;19.072;2023-01-26T07:44:47;3.42;;;2.85;;
62110;SDS011;48102;47.526;19.072;2023-01-26T07:47:50;5.32;;;4.10;;
62110;SDS011;48102;47.526;19.072;2023-01-26T07:50:58;3.80;;;2.72;;
62110;SDS011;48102;47.526;19.072;2023-01-26T07:54:02;9.43;;;4.03;;
62110;SDS011;48102;47.526;19.072;2023-01-26T07:57:05;6.05;;;5.05;;
62110;SDS011;48102;47.526;19.072;2023-01-26T08:00:10;5.47;;;4.03;;
62110;SDS011;48102;47.526;19.072;2023-01-26T08:03:17;5.78;;;3.83;;
62110;SDS011;48102;47.526;19.072;2023-01-26T08:06:20;5.40;;;3.30;;
62110;SDS011;48102;47.526;19.072;2023-01-26T08:09:23;6.47;;;3.65;;
62110;SDS011;48102;47.526;19.072;2023-01-26T08:12:28;4.00;;;3.22;;
62110;SDS011;48102;47.526;19.072;2023-01-26T08:15:32;6.85;;;4.07;;
62110;SDS011;48102;47.526;19.072;2023-01-26T08:18:35;8.85;;;3.75;;
62110;SDS011;48102;47.526;19.072;2023-01-26T08:21:38;7.00;;;5.07;;
62110;SDS011;48102;47.526;19.072;2023-01-26T08:24:41;7.47;;;3.97;;
62110;SDS011;48102;47.526;19.072;2023-01-26T08:27:44;5.70;;;3.72;;
62110;SDS011;48102;47.526;19.072;2023-01-26T08:30:47;6.10;;;3.70;;
62110;SDS011;48102;47.526;19.072;2023-01-26T08:33:50;5.70;;;3.92;;
62110;SDS011;48102;47.526;19.072;2023-01-26T08:36:54;6.93;;;3.92;;
62110;SDS011;48102;47.526;19.072;2023-01-26T08:39:57;5.10;;;3.83;;
62110;SDS011;48102;47.526;19.072;2023-01-26T08:43:01;9.02;;;4.80;;
62110;SDS011;48102;47.526;19.072;2023-01-26T08:46:05;7.03;;;4.45;;
62110;SDS011;48102;47.526;19.072;2023-01-26T08:49:08;4.90;;;3.75;;
62110;SDS011;48102;47.526;19.072;2023-01-26T08:55:14;5.33;;;3.63;;
62110;SDS011;48102;47.526;19.072;2023-01-26T08:58:17;7.28;;;4.78;;
62110;SDS011;48102;47.526;19.072;2023-01-26T09:01:21;6.32;;;4.45;;
62110;SDS011;48102;47.526;19.072;2023-01-26T09:07:28;3.95;;;3.10;;
62110;SDS011;48102;47.526;19.072;2023-01-26T09:10:32;6.78;;;4.90;;
62110;SDS011;48102;47.526;19.072;2023-01-26T09:13:35;7.35;;;5.12;;
62110;SDS011;48102;47.526;19.072;2023-01-26T09:16:40;5.07;;;4.20;;
62110;SDS011;48102;47.526;19.072;2023-01-26T09:19:43;7.93;;;5.30;;
62110;SDS011;48102;47.526;19.072;2023-01-26T09:25:52;8.23;;;4.57;;
62110;SDS011;48102;47.526;19.072;2023-01-26T09:28:55;8.52;;;5.75;;
62110;SDS011;48102;47.526;19.072;2023-01-26T09:31:58;15.95;;;5.53;;
62110;SDS011;48102;47.526;19.072;2023-01-26T09:35:01;8.65;;;5.97;;
62110;SDS011;48102;47.526;19.072;2023-01-26T09:38:04;6.60;;;4.85;;
62110;SDS011;48102;47.526;19.072;2023-01-26T09:41:19;11.75;;;6.43;;
62110;SDS011;48102;47.526;19.072;2023-01-26T09:48:20;6.47;;;4.43;;
62110;SDS011;48102;47.526;19.072;2023-01-26T09:55:10;7.40;;;4.43;;
62110;SDS011;48102;47.526;19.072;2023-01-26T09:58:31;6.15;;;4.78;;
62110;SDS011;48102;47.526;19.072;2023-01-26T10:05:25;6.97;;;4.93;;
62110;SDS011;48102;47.526;19.072;2023-01-26T10:08:36;17.67;;;5.68;;
62110;SDS011;48102;47.526;19.072;2023-01-26T10:11:40;8.10;;;5.22;;
62110;SDS011;48102;47.526;19.072;2023-01-26T10:14:50;8.18;;;5.75;;
62110;SDS011;48102;47.526;19.072;2023-01-26T10:17:59;8.35;;;5.15;;
62110;SDS011;48102;47.526;19.072;2023-01-26T10:21:07;10.52;;;5.18;;
62110;SDS011;48102;47.526;19.072;2023-01-26T10:24:12;7.07;;;4.65;;
62110;SDS011;48102;47.526;19.072;2023-01-26T10:27:19;5.72;;;4.32;;
62110;SDS011;48102;47.526;19.072;2023-01-26T10:30:22;9.18;;;5.07;;
62110;SDS011;48102;47.526;19.072;2023-01-26T10:33:36;7.50;;;5.03;;
62110;SDS011;48102;47.526;19.072;2023-01-26T10:36:40;10.85;;;6.70;;
62110;SDS011;48102;47.526;19.072;2023-01-26T10:39:55;7.50;;;5.10;;
62110;SDS011;48102;47.526;19.072;2023-01-26T10:43:03;8.90;;;4.87;;
62110;SDS011;48102;47.526;19.072;2023-01-26T10:46:08;7.10;;;5.10;;
62110;SDS011;48102;47.526;19.072;2023-01-26T10:49:29;5.57;;;4.22;;
62110;SDS011;48102;47.526;19.072;2023-01-26T10:52:32;8.13;;;4.82;;
62110;SDS011;48102;47.526;19.072;2023-01-26T10:55:35;5.78;;;4.62;;
62110;SDS011;48102;47.526;19.072;2023-01-26T10:58:54;5.87;;;4.65;;
62110;SDS011;48102;47.526;19.072;2023-01-26T11:05:25;7.22;;;4.50;;
62110;SDS011;48102;47.526;19.072;2023-01-26T11:08:33;8.07;;;4.93;;
62110;SDS011;48102;47.526;19.072;2023-01-26T11:11:38;6.95;;;5.15;;
62110;SDS011;48102;47.526;19.072;2023-01-26T11:14:41;8.18;;;5.22;;
62110;SDS011;48102;47.526;19.072;2023-01-26T11:18:03;7.32;;;5.25;;
62110;SDS011;48102;47.526;19.072;2023-01-26T11:21:19;6.82;;;4.87;;
62110;SDS011;48102;47.526;19.072;2023-01-26T11:24:32;8.27;;;4.97;;
62110;SDS011;48102;47.526;19.072;2023-01-26T11:28:00;7.82;;;4.82;;
62110;SDS011;48102;47.526;19.072;2023-01-26T11:34:36;5.95;;;4.65;;
62110;SDS011;48102;47.526;19.072;2023-01-26T11:41:19;7.93;;;4.95;;
62110;SDS011;48102;47.526;19.072;2023-01-26T12:01:37;10.27;;;5.82;;
62110;SDS011;48102;47.526;19.072;2023-01-26T12:04:43;9.70;;;5.68;;
62110;SDS011;48102;47.526;19.072;2023-01-26T12:08:11;6.40;;;5.47;;
62110;SDS011;48102;47.526;19.072;2023-01-26T12:11:44;9.40;;;6.10;;
62110;SDS011;48102;47.526;19.072;2023-01-26T12:18:28;12.37;;;5.80;;
62110;SDS011;48102;47.526;19.072;2023-01-26T12:21:59;10.88;;;5.82;;
62110;SDS011;48102;47.526;19.072;2023-01-26T12:25:27;14.20;;;8.40;;
62110;SDS011;48102;47.526;19.072;2023-01-26T12:28:39;8.45;;;5.85;;
62110;SDS011;48102;47.526;19.072;2023-01-26T12:32:12;10.73;;;6.40;;
62110;SDS011;48102;47.526;19.072;2023-01-26T12:42:55;9.70;;;6.90;;
62110;SDS011;48102;47.526;19.072;2023-01-26T12:45:44;8.40;;;5.85;;
62110;SDS011;48102;47.526;19.072;2023-01-26T12:48:53;8.63;;;6.00;;
62110;SDS011;48102;47.526;19.072;2023-01-26T12:52:07;20.00;;;5.68;;
62110;SDS011;48102;47.526;19.072;2023-01-26T12:55:19;10.57;;;7.22;;
62110;SDS011;48102;47.526;19.072;2023-01-26T12:58:32;16.50;;;7.07;;
62110;SDS011;48102;47.526;19.072;2023-01-26T13:01:39;11.60;;;6.25;;
62110;SDS011;48102;47.526;19.072;2023-01-26T13:04:44;8.65;;;6.25;;
62110;SDS011;48102;47.526;19.072;2023-01-26T13:07:50;8.88;;;6.12;;
62110;SDS011;48102;47.526;19.072;2023-01-26T13:10:54;10.18;;;5.30;;
62110;SDS011;48102;47.526;19.072;2023-01-26T13:13:57;13.30;;;6.22;;
62110;SDS011;48102;47.526;19.072;2023-01-26T13:20:27;8.70;;;5.93;;
62110;SDS011;48102;47.526;19.072;2023-01-26T13:23:45;11.18;;;6.95;;
62110;SDS011;48102;47.526;19.072;2023-01-26T13:26:48;10.80;;;6.85;;
62110;SDS011;48102;47.526;19.072;2023-01-26T13:29:54;12.18;;;6.30;;
62110;SDS011;48102;47.526;19.072;2023-01-26T13:36:14;10.88;;;6.90;;
62110;SDS011;48102;47.526;19.072;2023-01-26T13:39:30;10.15;;;6.07;;
62110;SDS011;48102;47.526;19.072;2023-01-26T13:42:41;11.93;;;6.22;;
62110;SDS011;48102;47.526;19.072;2023-01-26T13:46:07;10.07;;;5.55;;
62110;SDS011;48102;47.526;19.072;2023-01-26T13:49:37;16.25;;;6.75;;
62110;SDS011;48102;47.526;19.072;2023-01-26T13:52:42;11.32;;;6.97;;
62110;SDS011;48102;47.526;19.072;2023-01-26T13:55:47;7.78;;;5.37;;
62110;SDS011;48102;47.526;19.072;2023-01-26T13:59:07;9.15;;;6.62;;
62110;SDS011;48102;47.526;19.072;2023-01-26T14:02:19;11.45;;;6.10;;
62110;SDS011;48102;47.526;19.072;2023-01-26T14:05:27;10.25;;;6.05;;
62110;SDS011;48102;47.526;19.072;2023-01-26T14:08:33;11.15;;;7.00;;
62110;SDS011;48102;47.526;19.072;2023-01-26T14:11:38;11.12;;;6.75;;
62110;SDS011;48102;47.526;19.072;2023-01-26T14:14:40;9.75;;;6.72;;
62110;SDS011;48102;47.526;19.072;2023-01-26T14:17:51;9.27;;;5.43;;
62110;SDS011;48102;47.526;19.072;2023-01-26T14:21:03;8.57;;;5.30;;
62110;SDS011;48102;47.526;19.072;2023-01-26T14:24:07;12.85;;;7.25;;
62110;SDS011;48102;47.526;19.072;2023-01-26T14:30:30;8.90;;;5.30;;
62110;SDS011;48102;47.526;19.072;2023-01-26T14:33:35;10.02;;;6.22;;
62110;SDS011;48102;47.526;19.072;2023-01-26T14:36:39;8.05;;;5.70;;
62110;SDS011;48102;47.526;19.072;2023-01-26T14:39:41;7.60;;;6.05;;
62110;SDS011;48102;47.526;19.072;2023-01-26T14:42:48;8.38;;;5.78;;
62110;SDS011;48102;47.526;19.072;2023-01-26T14:45:59;9.68;;;6.47;;
62110;SDS011;48102;47.526;19.072;2023-01-26T14:49:16;10.93;;;6.25;;
62110;SDS011;48102;47.526;19.072;2023-01-26T14:52:27;9.75;;;6.30;;
62110;SDS011;48102;47.526;19.072;2023-01-26T14:55:35;11.30;;;5.78;;
62110;SDS011;48102;47.526;19.072;2023-01-26T14:58:38;8.40;;;6.10;;
62110;SDS011;48102;47.526;19.072;2023-01-26T15:01:42;10.65;;;7.30;;
62110;SDS011;48102;47.526;19.072;2023-01-26T15:11:02;5.53;;;4.55;;
62110;SDS011;48102;47.526;19.072;2023-01-26T15:14:32;7.47;;;4.57;;
62110;SDS011;48102;47.526;19.072;2023-01-26T15:17:41;11.15;;;5.53;;
62110;SDS011;48102;47.526;19.072;2023-01-26T15:24:13;6.97;;;4.57;;
62110;SDS011;48102;47.526;19.072;2023-01-26T15:27:17;6.95;;;4.57;;
62110;SDS011;48102;47.526;19.072;2023-01-26T15:30:27;7.07;;;4.85;;
62110;SDS011;48102;47.526;19.072;2023-01-26T15:39:44;6.18;;;4.62;;
62110;SDS011;48102;47.526;19.072;2023-01-26T15:42:48;5.65;;;5.10;;
62110;SDS011;48102;47.526;19.072;2023-01-26T15:45:54;6.07;;;4.05;;
62110;SDS011;48102;47.526;19.072;2023-01-26T15:48:58;8.43;;;4.95;;
62110;SDS011;48102;47.526;19.072;2023-01-26T15:52:01;7.20;;;4.80;;
62110;SDS011;48102;47.526;19.072;2023-01-26T15:58:38;8.38;;;5.60;;
62110;SDS011;48102;47.526;19.072;2023-01-26T16:01:42;7.28;;;4.85;;
62110;SDS011;48102;47.526;19.072;2023-01-26T16:04:45;19.83;;;6.10;;
62110;SDS011;48102;47.526;19.072;2023-01-26T16:07:49;6.40;;;5.20;;
62110;SDS011;48102;47.526;19.072;2023-01-26T16:10:55;8.40;;;5.12;;
62110;SDS011;48102;47.526;19.072;2023-01-26T16:13:59;8.15;;;5.03;;
62110;SDS011;48102;47.526;19.072;2023-01-26T16:17:13;6.78;;;5.10;;
62110;SDS011;48102;47.526;19.072;2023-01-26T16:20:17;7.25;;;4.75;;
62110;SDS011;48102;47.526;19.072;2023-01-26T16:23:21;8.68;;;5.37;;
62110;SDS011;48102;47.526;19.072;2023-01-26T16:26:30;7.47;;;5.12;;
62110;SDS011;48102;47.526;19.072;2023-01-26T16:29:34;4.93;;;3.90;;
